createdAt,value
2023-02-03T00:03:11.808Z,100365.31
2023-02-03T00:08:16.153Z,100368.55
2023-02-03T00:13:18.772Z,100362.84
2023-02-03T00:18:21.489Z,100367.31
2023-02-03T00:23:25.801Z,100378.38
2023-02-03T00:28:31.746Z,100377.08
2023-02-03T00:33:34.431Z,100382.96
2023-02-03T00:38:37.630Z,100380.22
2023-02-03T00:43:40.315Z,100378.65
2023-02-03T00:48:42.977Z,100374.92
2023-02-03T00:53:47.672Z,100372.95
2023-02-03T00:58:50.337Z,100374.80
2023-02-03T01:03:55.960Z,100366.30
2023-02-03T01:08:58.939Z,100359.31
2023-02-03T01:14:01.864Z,100351.33
2023-02-03T01:19:05.467Z,100350.56
2023-02-03T01:24:09.584Z,100346.54
2023-02-03T01:29:12.362Z,100339.90
2023-02-03T01:34:17.064Z,100333.91
2023-02-03T01:39:19.758Z,100323.13
2023-02-03T01:44:30.323Z,100318.48
2023-02-03T01:49:36.615Z,100318.31
2023-02-03T01:54:42.872Z,100305.30
2023-02-03T01:59:46.360Z,100295.50
2023-02-03T02:04:58.216Z,100293.37
2023-02-03T02:10:01.671Z,100291.65
2023-02-03T02:15:05.153Z,100287.80
2023-02-03T02:20:12.776Z,100284.64
2023-02-03T02:25:18.265Z,100279.23
2023-02-03T02:30:44.274Z,100268.73
2023-02-03T02:35:55.778Z,100263.54
2023-02-03T02:41:10.707Z,100264.16
2023-02-03T02:46:23.104Z,100259.90
2023-02-03T02:51:27.990Z,100255.14
2023-02-03T02:56:32.405Z,100241.71
2023-02-03T03:01:35.440Z,100233.23
2023-02-03T03:06:44.684Z,100229.42
2023-02-03T03:11:51.086Z,100231.71
2023-02-03T03:17:00.182Z,100233.23
2023-02-03T03:22:05.951Z,100232.80
2023-02-03T03:27:10.179Z,100226.77
2023-02-03T03:32:13.743Z,100231.93
2023-02-03T03:37:23.445Z,100241.35
2023-02-03T03:42:32.143Z,100247.54
2023-02-03T03:47:37.643Z,100243.20
2023-02-03T03:52:43.634Z,100243.83
2023-02-03T03:57:51.102Z,100236.20
2023-02-03T04:02:57.988Z,100223.79
2023-02-03T04:08:02.799Z,100214.48
2023-02-03T04:13:07.200Z,100207.01
2023-02-03T04:18:13.145Z,100199.52
2023-02-03T04:23:15.925Z,100195.58
2023-02-03T04:28:18.645Z,100197.11
2023-02-03T04:33:21.315Z,100191.50
2023-02-03T04:38:23.948Z,100182.83
2023-02-03T04:43:26.695Z,100172.09
2023-02-03T04:48:29.317Z,100168.96
2023-02-03T04:53:32.734Z,100172.19
2023-02-03T04:58:36.670Z,100171.90
2023-02-03T05:03:39.387Z,100159.01
2023-02-03T05:08:42.113Z,100159.94
2023-02-03T05:13:44.776Z,100150.54
2023-02-03T05:18:47.608Z,100139.09
2023-02-03T05:23:51.404Z,100129.77
2023-02-03T05:28:56.666Z,100124.77
2023-02-03T05:34:00.317Z,100109.35
2023-02-03T05:39:02.982Z,100103.46
2023-02-03T05:44:08.216Z,100093.93
2023-02-03T05:49:10.839Z,100088.76
2023-02-03T05:54:13.675Z,100080.67
2023-02-03T05:59:16.335Z,100069.54
2023-02-03T06:04:19.045Z,100062.44
2023-02-03T06:09:21.780Z,100061.28
2023-02-03T06:14:28.167Z,100058.63
2023-02-03T06:19:30.803Z,100053.29
2023-02-03T06:24:33.600Z,100044.52
2023-02-03T06:29:36.203Z,100037.33
2023-02-03T06:34:38.834Z,100024.65
2023-02-03T06:39:41.444Z,100013.22
2023-02-03T06:44:44.268Z,100003.34
2023-02-03T06:49:52.151Z,99990.75
2023-02-03T06:54:54.845Z,99985.50
2023-02-03T06:59:57.477Z,99985.56
2023-02-03T07:05:00.127Z,99967.27
2023-02-03T07:10:03.332Z,99954.63
2023-02-03T07:15:06.272Z,99947.42
2023-02-03T07:20:09.329Z,99941.25
2023-02-03T07:25:11.921Z,99939.02
2023-02-03T07:30:16.104Z,99930.95
2023-02-03T07:35:19.659Z,99927.67
2023-02-03T07:40:22.328Z,99918.71
2023-02-03T07:45:25.146Z,99902.89
2023-02-03T07:50:28.051Z,99891.00
2023-02-03T07:55:31.076Z,99887.20
2023-02-03T08:00:34.015Z,99879.28
2023-02-03T08:05:36.694Z,99873.23
2023-02-03T08:10:39.431Z,99868.33
2023-02-03T08:15:42.117Z,99862.84
2023-02-03T08:20:46.172Z,99852.17
2023-02-03T08:25:52.422Z,99839.09
2023-02-03T08:30:56.440Z,99828.09
2023-02-03T08:36:00.975Z,99808.70
2023-02-03T08:41:14.322Z,99796.30
2023-02-03T08:46:19.808Z,99792.99
2023-02-03T08:51:22.463Z,99783.84
2023-02-03T08:56:26.420Z,99770.92
2023-02-03T09:01:29.186Z,99760.75
2023-02-03T09:06:31.845Z,99751.08
2023-02-03T09:11:34.468Z,99743.73
2023-02-03T09:16:37.460Z,99725.05
2023-02-03T09:21:44.643Z,99710.12
2023-02-03T09:26:51.435Z,99704.61
2023-02-03T09:31:54.277Z,99693.15
2023-02-03T09:36:56.893Z,99681.84
2023-02-03T09:42:08.993Z,99670.29
2023-02-03T09:47:20.407Z,99657.38
2023-02-03T09:52:28.844Z,99639.69
2023-02-03T09:57:36.959Z,99627.67
2023-02-03T10:02:50.915Z,99613.55
2023-02-03T10:08:06.423Z,99601.70
2023-02-03T10:13:11.901Z,99598.02
2023-02-03T10:18:23.793Z,99582.03
2023-02-03T10:23:32.966Z,99556.48
2023-02-03T10:28:44.072Z,99548.17
2023-02-03T10:33:47.926Z,99535.05
2023-02-03T10:38:51.515Z,99513.21
2023-02-03T10:43:57.565Z,99494.95
2023-02-03T10:49:01.045Z,99478.23
2023-02-03T10:54:03.800Z,99457.11
2023-02-03T10:59:08.219Z,99438.72
2023-02-03T11:04:16.629Z,99420.86
2023-02-03T11:09:28.886Z,99400.52
2023-02-03T11:14:40.546Z,99383.38
2023-02-03T11:19:46.012Z,99378.92
2023-02-03T11:24:48.666Z,99367.69
2023-02-03T11:30:11.617Z,99359.33
2023-02-03T11:35:17.198Z,99354.34
2023-02-03T11:40:20.838Z,99346.84
2023-02-03T11:45:27.027Z,99333.23
2023-02-03T11:50:33.610Z,99316.19
2023-02-03T11:55:45.109Z,99311.98
2023-02-03T12:00:58.749Z,99295.16
2023-02-03T12:06:08.089Z,99280.45
2023-02-03T12:11:12.682Z,99269.44
2023-02-03T12:16:18.180Z,99253.42
2023-02-03T12:21:22.773Z,99235.70
2023-02-03T12:26:33.367Z,99219.42
2023-02-03T12:31:43.507Z,99208.56
2023-02-03T12:37:08.652Z,99190.05
2023-02-03T12:42:19.796Z,99179.91
2023-02-03T12:47:31.990Z,99170.53
2023-02-03T12:52:43.947Z,99162.14
2023-02-03T12:57:55.027Z,99141.05
2023-02-03T13:03:06.297Z,99136.70
2023-02-03T13:08:20.517Z,99124.08
2023-02-03T13:13:34.794Z,99116.83
2023-02-03T13:18:42.246Z,99110.02
2023-02-03T13:23:48.262Z,99104.74
2023-02-03T13:29:02.456Z,99100.54
2023-02-03T13:34:16.895Z,99089.98
2023-02-03T13:39:25.335Z,99082.68
2023-02-03T13:44:29.733Z,99075.45
2023-02-03T13:49:37.034Z,99067.98
2023-02-03T13:54:44.099Z,99061.14
2023-02-03T13:59:47.009Z,99052.34
2023-02-03T14:04:54.417Z,99050.19
2023-02-03T14:10:24.821Z,99046.30
2023-02-03T14:15:31.137Z,99045.00
2023-02-03T14:20:40.236Z,99040.33
2023-02-03T14:25:49.782Z,99038.80
2023-02-03T14:31:17.348Z,99037.35
2023-02-03T14:36:25.926Z,99032.98
2023-02-03T14:41:38.144Z,99033.88
2023-02-03T14:46:53.707Z,99022.95
2023-02-03T14:52:14.289Z,99014.52
2023-02-03T14:57:29.299Z,99008.83
2023-02-03T15:02:33.308Z,98998.77
2023-02-03T15:07:43.969Z,98996.45
2023-02-03T15:12:50.135Z,98993.44
2023-02-03T15:17:56.726Z,98990.80
2023-02-03T15:22:59.527Z,98992.93
2023-02-03T15:28:07.993Z,98994.22
2023-02-03T15:33:16.190Z,99000.59
2023-02-03T15:38:31.117Z,99010.33
2023-02-03T15:43:39.870Z,99020.55
2023-02-03T15:48:57.654Z,99023.14
2023-02-03T15:54:06.402Z,99034.34
2023-02-03T15:59:14.799Z,99034.02
2023-02-03T16:04:17.901Z,99037.65
2023-02-03T16:09:41.654Z,99046.96
2023-02-03T16:14:45.048Z,99063.60
2023-02-03T16:19:51.135Z,99076.47
2023-02-03T16:24:53.757Z,99082.70
2023-02-03T16:30:05.089Z,99091.98
2023-02-03T16:35:13.019Z,99088.08
2023-02-03T16:40:24.064Z,99092.01
2023-02-03T16:45:29.900Z,99098.02
2023-02-03T16:50:39.408Z,99101.42
2023-02-03T16:55:43.990Z,99113.08
2023-02-03T17:00:50.700Z,99109.39
2023-02-03T17:05:57.332Z,99105.67
2023-02-03T17:11:06.082Z,99112.19
2023-02-03T17:16:12.479Z,99116.27
2023-02-03T17:21:21.021Z,99128.92
2023-02-03T17:26:23.691Z,99133.74
2023-02-03T17:31:26.511Z,99125.70
2023-02-03T17:36:29.243Z,99131.71
2023-02-03T17:56:49.215Z,99149.21
2023-02-03T18:01:52.875Z,99154.89
2023-02-03T18:06:55.510Z,99154.54
2023-02-03T18:11:58.166Z,99167.89
2023-02-03T18:17:00.860Z,99175.77
2023-02-03T18:22:03.739Z,99174.91
2023-02-03T18:27:06.370Z,99176.13
2023-02-03T18:32:09.004Z,99185.73
2023-02-03T18:37:12.111Z,99177.67
2023-02-03T18:42:15.959Z,99173.23
2023-02-03T18:47:18.571Z,99180.78
2023-02-03T18:52:21.218Z,99202.88
2023-02-03T18:57:25.107Z,99218.61
2023-02-03T19:02:28.072Z,99217.25
2023-02-03T19:07:31.323Z,99233.86
2023-02-03T19:12:34.148Z,99242.77
2023-02-03T19:17:37.210Z,99251.65
2023-02-03T19:22:39.880Z,99251.83
2023-02-03T19:27:42.509Z,99252.16
2023-02-03T19:32:45.140Z,99258.36
2023-02-03T19:37:47.773Z,99274.63
2023-02-03T19:42:50.440Z,99303.71
2023-02-03T19:47:53.085Z,99331.60
2023-02-03T19:52:55.687Z,99337.55
2023-02-03T19:57:59.916Z,99332.94
2023-02-03T20:03:02.610Z,99347.83
2023-02-03T20:08:05.893Z,99346.14
2023-02-03T20:13:10.825Z,99347.01
2023-02-03T20:18:13.444Z,99355.05
2023-02-03T20:23:16.054Z,99373.56
2023-02-03T20:28:20.104Z,99391.39
2023-02-03T20:33:26.752Z,99393.10
2023-02-03T20:38:32.472Z,99411.77
2023-02-03T20:43:35.118Z,99423.27
2023-02-03T20:48:37.819Z,99426.70
2023-02-03T20:53:41.245Z,99434.73
2023-02-03T20:58:44.959Z,99448.27
2023-02-03T21:03:51.331Z,99471.70
2023-02-03T21:08:53.966Z,99493.46
2023-02-03T21:13:56.867Z,99510.75
2023-02-03T21:19:02.578Z,99527.87
2023-02-03T21:24:25.046Z,99548.23
2023-02-03T21:29:33.077Z,99564.66
2023-02-03T21:34:37.468Z,99576.13
2023-02-03T21:39:41.496Z,99597.35
2023-02-03T21:45:16.843Z,99623.02
2023-02-03T21:50:25.247Z,99646.83
2023-02-03T21:55:27.885Z,99665.14
2023-02-03T22:00:37.114Z,99680.71
2023-02-03T22:05:39.714Z,99697.15
2023-02-03T22:10:42.304Z,99709.64
2023-02-03T22:15:45.007Z,99727.10
2023-02-03T22:20:47.664Z,99743.54
2023-02-03T22:25:50.448Z,99758.77
2023-02-03T22:30:53.564Z,99765.94
2023-02-03T22:35:56.382Z,99770.23
2023-02-03T22:40:59.267Z,99781.00
2023-02-03T22:46:02.143Z,99796.73
2023-02-03T22:51:04.985Z,99803.73
2023-02-03T22:56:07.807Z,99804.94
2023-02-03T23:01:10.429Z,99814.52
2023-02-03T23:06:13.044Z,99830.75
2023-02-03T23:11:15.690Z,99838.95
2023-02-03T23:16:18.424Z,99857.94
2023-02-03T23:21:23.130Z,99873.16
2023-02-03T23:26:25.773Z,99887.17
2023-02-03T23:31:28.547Z,99902.20
2023-02-03T23:36:32.083Z,99913.83
2023-02-03T23:41:34.682Z,99931.94
2023-02-03T23:46:37.357Z,99950.05
2023-02-03T23:51:39.964Z,99962.37
2023-02-03T23:56:42.622Z,99974.17
